Time;durP1;ratioP1;P1;durP2;ratioP2;P2;SDS_P1;SDS_P2;PMS_P1;PMS_P2;Temp;Humidity;BMP_temperature;BMP_pressure;BME280_temperature;BME280_humidity;BME280_pressure;Samples;Min_cycle;Max_cycle;Signal;HPM_P1;HPM_P2
2021/07/14 00:00:16;;;;;;;20.00;13.23;;;19.40;99.90;;;19.78;84.40;101178.50;5054123;28;20053;-73
2021/07/14 00:02:45;;;;;;;19.27;12.48;;;19.50;99.90;;;19.06;84.02;101061.31;5054223;28;20406;-72
2021/07/14 00:05:16;;;;;;;18.95;12.88;;;19.50;99.90;;;19.63;84.24;101157.56;5054162;28;20052;-73
2021/07/14 00:07:46;;;;;;;17.42;11.88;;;19.50;99.90;;;19.88;84.21;101182.59;5054145;28;20048;-73
2021/07/14 00:10:20;;;;;;;16.60;11.75;;;19.60;99.90;;;19.88;84.02;101187.09;5054269;28;20045;-73
2021/07/14 00:12:59;;;;;;;17.38;10.75;;;19.60;99.90;;;19.83;84.24;101181.88;5054100;28;20037;-73
2021/07/14 00:23:50;;;;;;;17.23;11.75;;;19.80;99.90;;;19.85;84.20;101184.50;5053241;28;20044;-72
2021/07/14 00:26:19;;;;;;;19.77;14.57;;;19.70;99.90;;;19.88;84.91;101179.91;5053574;28;20037;-73
2021/07/14 00:28:51;;;;;;;20.87;13.20;;;19.70;99.90;;;19.89;84.74;101187.03;5053780;28;20048;-73
2021/07/14 00:31:20;;;;;;;19.92;12.60;;;19.70;99.90;;;19.84;84.91;101182.78;5053652;28;20068;-72
2021/07/14 00:33:49;;;;;;;28.77;14.60;;;19.70;99.90;;;19.89;85.22;101181.66;5053654;28;20131;-72
2021/07/14 00:36:18;;;;;;;21.52;12.80;;;19.70;99.90;;;19.84;85.19;101174.72;5053333;28;20053;-73
2021/07/14 00:38:46;;;;;;;17.92;13.50;;;19.70;99.90;;;19.91;85.14;101190.53;5053498;28;20151;-72
2021/07/14 00:41:15;;;;;;;19.30;13.68;;;19.70;99.90;;;19.87;85.35;101188.91;5053545;28;20048;-72
2021/07/14 00:43:44;;;;;;;21.15;14.52;;;19.70;99.90;;;19.91;85.46;101187.84;5053190;28;20072;-72
2021/07/14 00:46:25;;;;;;;21.50;14.83;;;19.70;99.90;;;19.85;85.62;101179.13;5053481;28;20074;-72
2021/07/14 00:48:57;;;;;;;23.00;14.25;;;19.70;99.90;;;19.93;85.40;101180.63;5053495;28;20288;-72
2021/07/14 00:51:25;;;;;;;26.52;14.63;;;19.70;99.90;;;19.94;85.56;101179.66;5053347;28;20367;-72
2021/07/14 00:53:54;;;;;;;21.30;15.18;;;19.80;99.90;;;19.98;85.32;101180.41;5053137;28;20565;-72
2021/07/14 00:56:24;;;;;;;21.80;15.25;;;19.80;99.90;;;19.88;85.88;101181.72;5053125;28;20122;-72
2021/07/14 00:58:55;;;;;;;22.92;14.55;;;19.70;99.90;;;19.92;86.08;101186.91;5053193;28;20049;-71
2021/07/14 01:01:24;;;;;;;25.77;17.05;;;19.60;99.90;;;20.02;85.82;101185.63;5051570;28;20061;-72
2021/07/14 01:04:02;;;;;;;25.27;15.45;;;19.70;99.90;;;20.05;85.54;101193.59;5051966;28;20456;-72
2021/07/14 01:06:45;;;;;;;24.17;15.60;;;19.80;99.90;;;20.06;85.35;101199.81;5053306;28;20106;-72
2021/07/14 01:09:17;;;;;;;26.15;15.65;;;19.80;99.90;;;20.13;85.29;101204.88;5053226;28;20048;-72
2021/07/14 01:11:48;;;;;;;27.65;15.95;;;19.90;99.90;;;20.15;85.15;101200.34;5053179;28;20049;-72
2021/07/14 01:14:23;;;;;;;26.38;16.00;;;19.90;99.90;;;20.19;85.14;101202.00;5053239;28;20440;-72
2021/07/14 01:16:59;;;;;;;26.60;17.17;;;19.90;99.90;;;20.25;84.87;101191.03;5052913;28;20041;-72
2021/07/14 01:20:13;;;;;;;26.15;17.02;;;20.00;99.90;;;20.17;85.15;101182.34;5053179;28;20045;-72
2021/07/14 01:22:54;;;;;;;28.13;17.10;;;20.00;99.90;;;20.22;85.18;101185.78;5046266;28;20107;-71
2021/07/14 01:25:51;;;;;;;26.67;16.92;;;20.00;99.90;;;20.20;85.19;101174.22;5052839;28;20437;-72
2021/07/14 01:28:26;;;;;;;29.75;18.30;;;20.00;99.90;;;20.21;85.31;101173.28;5053117;28;20045;-72
2021/07/14 01:30:56;;;;;;;23.58;16.40;;;20.00;99.90;;;20.23;85.30;101181.25;5052713;28;20107;-72
2021/07/14 01:33:31;;;;;;;28.90;17.50;;;20.00;99.90;;;20.21;85.35;101178.66;5053043;28;20055;-72
2021/07/14 01:36:04;;;;;;;30.90;17.52;;;20.00;99.90;;;20.14;85.59;101187.84;5057025;28;20049;-72
2021/07/14 01:38:36;;;;;;;30.02;18.05;;;20.00;99.90;;;20.19;85.76;101177.81;5072375;28;20053;-72
2021/07/14 01:41:06;;;;;;;26.73;17.23;;;19.90;99.90;;;20.22;85.59;101175.03;5056971;28;20045;-72
2021/07/14 01:43:41;;;;;;;25.80;17.42;;;20.00;99.90;;;20.25;85.39;101161.47;5056906;28;20049;-72
2021/07/14 01:46:11;;;;;;;29.63;16.55;;;20.00;99.90;;;20.28;85.31;101180.19;5056823;28;20045;-72
2021/07/14 01:48:43;;;;;;;25.98;16.40;;;20.10;99.90;;;20.29;85.25;101186.41;5056768;28;20049;-72
2021/07/14 01:51:13;;;;;;;26.20;15.95;;;20.10;99.90;;;20.31;85.40;101181.84;5071774;28;20080;-72
2021/07/14 01:53:44;;;;;;;29.45;16.50;;;20.10;99.90;;;20.30;85.45;101189.06;5056870;28;20060;-72
2021/07/14 01:56:14;;;;;;;22.67;15.48;;;20.10;99.90;;;20.23;85.75;101186.63;5056502;28;20049;-72
2021/07/14 01:58:48;;;;;;;26.05;16.25;;;20.00;99.90;;;19.03;85.68;100961.34;5056427;28;20418;-72
2021/07/14 02:01:19;;;;;;;23.70;15.48;;;20.10;99.90;;;20.29;85.51;101181.91;5056431;28;20057;-72
2021/07/14 02:04:30;;;;;;;21.27;16.35;;;20.10;99.90;;;20.28;85.17;101174.81;5056491;28;20084;-72
2021/07/14 02:06:50;;;;;;;24.83;15.82;;;20.10;99.90;;;20.24;85.31;101183.03;5056365;28;20057;-72
2021/07/14 02:09:19;;;;;;;26.10;15.60;;;20.10;99.90;;;20.13;85.71;101166.44;5056426;28;20048;-72
2021/07/14 02:11:51;;;;;;;22.88;16.20;;;20.00;99.90;;;20.29;85.36;101189.97;5056128;28;20037;-73
2021/07/14 02:14:27;;;;;;;27.75;16.63;;;20.10;99.90;;;20.31;85.32;101193.47;5056343;28;20083;-72
2021/07/14 02:17:06;;;;;;;26.80;16.90;;;20.10;99.90;;;20.33;85.19;101188.91;5056269;28;20048;-72
2021/07/14 02:19:36;;;;;;;24.45;16.50;;;20.10;99.90;;;20.38;84.95;101178.84;5056186;28;20045;-73
2021/07/14 02:22:05;;;;;;;22.30;16.48;;;20.10;99.90;;;20.35;84.86;101180.78;5055833;28;20049;-73
2021/07/14 02:24:34;;;;;;;21.08;13.90;;;20.20;99.90;;;20.37;84.62;101171.75;5056027;28;20124;-72
2021/07/14 02:27:06;;;;;;;21.92;15.05;;;20.20;99.90;;;20.36;84.65;101169.13;5055606;28;20045;-73
2021/07/14 02:29:39;;;;;;;24.20;15.00;;;20.10;99.90;;;20.38;84.44;101172.63;5054725;28;20052;-72
2021/07/14 02:32:09;;;;;;;23.08;16.38;;;20.20;99.90;;;20.42;84.07;101174.25;5055679;28;20076;-72
2021/07/14 02:34:38;;;;;;;25.33;17.75;;;20.20;99.90;;;20.19;85.05;101156.34;5055975;28;20037;-73
2021/07/14 02:37:11;;;;;;;26.48;16.60;;;20.00;99.90;;;20.26;84.87;101154.28;5055572;28;20520;-73
2021/07/14 02:39:44;;;;;;;29.38;17.42;;;20.10;99.90;;;20.20;85.26;101150.03;5055874;28;20081;-73
2021/07/14 02:42:17;;;;;;;28.27;17.65;;;20.00;99.90;;;20.14;85.52;101154.72;5055582;28;20048;-73
2021/07/14 02:44:48;;;;;;;25.33;16.83;;;20.00;99.90;;;20.13;85.35;101151.16;5055766;28;20049;-72
2021/07/14 02:47:16;;;;;;;;;;;19.90;99.90;;;20.14;85.53;101144.88;5055577;28;20102;-72
2021/07/14 02:49:45;;;;;;;29.67;17.95;;;19.90;99.90;;;20.11;85.49;101144.13;5055581;28;20324;-74
2021/07/14 02:52:15;;;;;;;26.35;17.55;;;19.90;99.90;;;20.04;85.39;101130.03;5055521;28;20102;-74
2021/07/14 02:54:46;;;;;;;26.65;17.40;;;20.00;99.90;;;20.15;85.50;101145.75;5055558;28;20095;-72
2021/07/14 02:57:18;;;;;;;25.02;17.42;;;20.00;99.90;;;20.13;85.44;101148.47;5055696;28;20049;-73
2021/07/14 02:59:54;;;;;;;26.73;17.45;;;19.90;99.90;;;20.19;85.22;101148.28;5055409;28;20132;-73
2021/07/14 03:02:23;;;;;;;32.08;17.25;;;20.00;99.90;;;20.16;85.12;101145.69;5055162;28;20049;-72
2021/07/14 03:04:53;;;;;;;28.83;17.48;;;19.90;99.90;;;20.25;84.99;101149.84;5055327;28;20112;-73
2021/07/14 03:07:25;;;;;;;29.48;17.42;;;20.00;99.90;;;20.23;85.24;101155.28;5055251;28;20098;-73
2021/07/14 03:09:54;;;;;;;28.90;18.23;;;20.00;99.90;;;20.04;85.06;101121.97;5055243;28;20441;-72
2021/07/14 03:12:26;;;;;;;31.85;19.77;;;20.00;99.90;;;20.20;85.25;101157.22;5055321;28;20087;-74
2021/07/14 03:15:01;;;;;;;30.90;18.90;;;19.90;99.90;;;20.15;85.05;101137.69;5055158;28;20135;-73
2021/07/14 03:17:32;;;;;;;29.20;19.20;;;20.00;99.90;;;20.20;85.34;101159.91;5054886;28;20052;-73
2021/07/14 03:20:06;;;;;;;32.60;18.90;;;20.00;99.90;;;20.22;85.23;101145.47;5055110;28;20127;-72
2021/07/14 03:22:36;;;;;;;34.25;20.90;;;20.00;99.90;;;20.07;85.54;101132.63;5054752;28;20106;-72
2021/07/14 03:25:06;;;;;;;31.83;18.73;;;19.90;99.90;;;20.07;86.04;101142.50;5054644;28;20068;-72
2021/07/14 03:27:35;;;;;;;33.85;20.73;;;19.80;99.90;;;20.06;86.37;101146.09;5055090;28;20053;-73
2021/07/14 03:30:06;;;;;;;32.25;20.15;;;19.80;99.90;;;20.07;86.42;101142.50;5054801;28;20535;-72
2021/07/14 03:32:35;;;;;;;33.78;20.63;;;19.80;99.90;;;20.12;86.22;101144.06;5054738;28;20037;-72
2021/07/14 03:35:04;;;;;;;38.42;20.95;;;19.90;99.90;;;20.14;86.25;101142.19;5069819;28;20044;-72
2021/07/14 03:37:33;;;;;;;36.47;21.75;;;19.90;99.90;;;20.11;86.32;101139.59;5053408;28;20098;-72
2021/07/14 03:40:04;;;;;;;36.53;21.08;;;19.90;99.90;;;20.13;86.41;101139.56;5054639;28;20048;-72
2021/07/14 03:42:34;;;;;;;33.00;20.73;;;19.80;99.90;;;19.53;86.15;101038.13;5054320;28;20060;-72
2021/07/14 03:45:04;;;;;;;35.30;21.25;;;19.90;99.90;;;20.11;86.27;101133.38;5054526;28;20079;-72
2021/07/14 03:47:34;;;;;;;34.65;20.08;;;19.90;99.90;;;20.19;86.06;101139.38;5054563;28;20049;-72
2021/07/14 03:50:05;;;;;;;34.63;21.52;;;19.90;99.90;;;20.17;86.27;101133.13;5054460;28;20053;-72
2021/07/14 03:52:34;;;;;;;28.65;19.90;;;20.00;99.90;;;20.21;86.31;101132.13;5054388;28;20513;-72
2021/07/14 03:55:05;;;;;;;34.83;20.48;;;20.00;99.90;;;20.15;86.28;101135.00;5054371;28;20064;-73
2021/07/14 03:57:34;;;;;;;30.20;18.95;;;20.00;99.90;;;20.15;86.32;101132.31;5053568;28;20052;-73
2021/07/14 04:00:05;;;;;;;23.88;17.52;;;19.90;99.90;;;20.07;86.21;101137.13;5054081;28;20072;-72
2021/07/14 04:02:37;;;;;;;27.73;17.45;;;19.90;99.90;;;20.05;86.43;101138.97;5053929;28;20118;-72
2021/07/14 04:05:07;;;;;;;28.15;18.08;;;19.80;99.90;;;19.95;86.57;101140.28;5054166;28;20060;-72
2021/07/14 04:07:37;;;;;;;28.90;19.02;;;19.80;99.90;;;20.00;86.90;101143.63;5054175;28;20045;-72
2021/07/14 04:10:07;;;;;;;27.13;17.95;;;19.70;99.90;;;20.04;86.53;101138.09;5053961;28;20067;-73
2021/07/14 04:12:35;;;;;;;25.10;17.05;;;19.80;99.90;;;19.98;86.61;101137.44;5054009;28;20094;-75
2021/07/14 04:15:07;;;;;;;21.25;15.93;;;19.70;99.90;;;19.94;86.69;101141.22;5053916;28;20045;-74
2021/07/14 04:17:35;;;;;;;26.15;17.33;;;19.70;99.90;;;19.95;86.85;101141.16;5053882;28;20053;-73
2021/07/14 04:20:06;;;;;;;21.20;15.57;;;19.70;99.90;;;20.02;86.68;101137.28;5053856;28;20033;-73
2021/07/14 04:22:34;;;;;;;21.50;14.95;;;19.80;99.90;;;20.00;86.70;101138.28;5069282;28;20494;-72
2021/07/14 04:25:04;;;;;;;22.60;16.15;;;19.80;99.90;;;19.85;86.55;101107.53;5053464;28;20049;-71
2021/07/14 04:27:32;;;;;;;21.63;15.23;;;19.80;99.90;;;19.96;86.58;101134.84;5053400;28;20071;-72
2021/07/14 04:30:01;;;;;;;22.45;16.90;;;19.80;99.90;;;19.86;87.04;101124.53;5053720;28;20053;-72
2021/07/14 04:32:30;;;;;;;22.93;16.73;;;19.70;99.90;;;19.66;87.42;101134.22;5053347;28;20072;-72
2021/07/14 04:34:59;;;;;;;25.97;17.93;;;19.50;99.90;;;19.68;88.32;101126.09;5053979;28;20106;-72
2021/07/14 04:37:27;;;;;;;27.40;18.33;;;19.50;99.90;;;19.66;88.46;101120.78;5068989;28;20556;-72
2021/07/14 04:39:55;;;;;;;22.95;18.05;;;19.50;99.90;;;19.73;88.01;101130.34;5068967;28;20041;-72
2021/07/14 04:42:24;;;;;;;25.70;17.83;;;19.50;99.90;;;19.65;88.22;101137.81;5053556;28;20045;-72
2021/07/14 04:44:52;;;;;;;26.75;19.55;;;19.50;99.90;;;19.57;88.66;101139.00;5053284;28;20510;-72
2021/07/14 04:47:21;;;;;;;29.58;19.77;;;19.40;99.90;;;19.60;88.87;101141.59;5068901;28;20045;-72
2021/07/14 04:49:51;;;;;;;30.75;20.23;;;19.40;99.90;;;19.58;88.75;101140.78;5053432;28;20124;-72
2021/07/14 04:52:19;;;;;;;28.83;19.85;;;19.40;99.90;;;19.65;88.85;101150.34;5053414;28;20103;-72
2021/07/14 04:54:48;;;;;;;27.30;20.42;;;19.50;99.90;;;19.61;88.57;101137.97;5053216;28;20049;-72
2021/07/14 04:57:16;;;;;;;25.65;18.75;;;19.50;99.90;;;19.71;88.39;101155.50;5052992;28;20409;-72
2021/07/14 04:59:45;;;;;;;31.15;19.00;;;19.40;99.90;;;19.70;88.08;101149.25;5053307;28;20041;-72
2021/07/14 05:02:13;;;;;;;32.47;19.85;;;19.50;99.90;;;19.76;87.90;101151.69;5053129;28;20073;-71
2021/07/14 05:04:42;;;;;;;30.33;20.13;;;19.50;99.90;;;19.84;87.72;101151.41;5053203;28;20060;-71
2021/07/14 05:07:12;;;;;;;31.55;20.40;;;19.60;99.90;;;19.87;87.37;101153.09;5068408;28;20045;-72
2021/07/14 05:09:40;;;;;;;29.00;17.85;;;19.70;99.90;;;19.82;87.03;101155.09;5053034;28;20053;-72
2021/07/14 05:12:09;;;;;;;34.70;20.05;;;19.60;99.90;;;19.90;86.79;101153.00;5053165;28;20047;-72
2021/07/14 05:14:37;;;;;;;31.42;20.30;;;19.70;99.90;;;19.90;86.59;101153.88;5053143;28;20102;-72
2021/07/14 05:17:05;;;;;;;27.73;18.30;;;19.70;99.90;;;19.93;86.56;101152.88;5068249;28;20056;-71
2021/07/14 05:19:34;;;;;;;30.33;18.88;;;19.70;99.90;;;19.95;86.10;101164.44;5052822;28;20561;-72
2021/07/14 05:22:02;;;;;;;31.90;19.00;;;19.70;99.90;;;19.91;86.11;101158.31;5053051;28;20053;-72
2021/07/14 05:24:35;;;;;;;27.35;19.33;;;19.70;99.90;;;19.87;86.22;101155.78;5052984;28;20049;-72
2021/07/14 05:27:04;;;;;;;26.17;18.55;;;19.70;99.90;;;19.88;86.28;101155.72;5052236;28;20494;-72
2021/07/14 05:29:32;;;;;;;27.23;18.45;;;19.70;99.90;;;19.66;86.25;101152.13;5051911;28;20099;-72
2021/07/14 05:32:01;;;;;;;23.95;17.98;;;19.50;99.90;;;19.77;86.08;101155.28;5052869;28;20371;-72
2021/07/14 05:34:29;;;;;;;25.67;18.88;;;19.50;99.90;;;19.80;86.04;101165.91;5052602;28;20045;-72
2021/07/14 05:36:58;;;;;;;21.98;17.17;;;19.60;99.90;;;19.80;85.88;101161.38;5052615;28;20072;-72
2021/07/14 05:39:26;;;;;;;24.98;17.45;;;19.50;99.90;;;19.75;85.98;101163.38;5052864;28;20049;-71
2021/07/14 05:41:56;;;;;;;25.48;18.85;;;19.50;99.90;;;19.73;86.07;101172.41;5052670;28;20091;-72
2021/07/14 05:44:25;;;;;;;24.50;17.17;;;19.50;99.90;;;19.72;86.16;101176.91;5052654;28;20437;-73
2021/07/14 05:46:53;;;;;;;23.85;16.20;;;19.50;99.90;;;19.79;86.18;101185.63;5052802;28;20099;-72
2021/07/14 05:49:22;;;;;;;28.73;17.38;;;19.50;99.90;;;18.92;86.42;101072.53;5052580;28;20033;-72
2021/07/14 05:51:51;;;;;;;24.30;15.82;;;19.40;99.90;;;19.57;86.92;101180.16;5052487;28;20494;-72
2021/07/14 05:54:20;;;;;;;25.55;16.58;;;19.40;99.90;;;19.59;86.82;101188.16;5052686;28;20049;-72
2021/07/14 05:56:48;;;;;;;22.05;15.63;;;19.40;99.90;;;19.60;87.04;101201.53;5052794;28;20075;-72
2021/07/14 05:59:19;;;;;;;23.10;15.38;;;19.40;99.90;;;19.59;86.79;101199.75;5052675;28;20130;-72
2021/07/14 06:01:47;;;;;;;22.65;16.42;;;19.50;99.90;;;19.74;86.66;101209.94;5052186;28;20083;-73
2021/07/14 06:04:16;;;;;;;20.58;14.88;;;19.50;99.90;;;19.66;86.40;101189.69;5052441;28;20076;-72
2021/07/14 06:06:44;;;;;;;25.50;16.08;;;19.60;99.90;;;19.77;86.42;101208.97;5052684;28;20049;-72
2021/07/14 06:09:13;;;;;;;23.92;14.27;;;19.60;99.90;;;19.68;86.67;101214.69;5052363;28;20499;-72
2021/07/14 06:11:41;;;;;;;21.42;14.20;;;19.50;99.90;;;19.64;86.85;101213.91;5068009;28;20106;-72
2021/07/14 06:14:10;;;;;;;21.20;14.55;;;19.40;99.90;;;19.75;86.72;101202.78;5069103;28;20049;-72
2021/07/14 06:16:40;;;;;;;19.98;13.55;;;19.50;99.90;;;19.24;88.57;101215.34;5052481;28;20116;-72
2021/07/14 06:19:09;;;;;;;20.67;14.93;;;19.10;99.90;;;19.37;88.54;101197.91;5052833;28;20049;-72
2021/07/14 06:21:37;;;;;;;20.38;14.32;;;19.20;99.90;;;19.47;88.25;101210.94;5053977;28;20493;-73
2021/07/14 06:24:06;;;;;;;20.63;13.77;;;19.30;99.90;;;19.49;88.06;101214.44;5055899;28;20478;-73
2021/07/14 06:26:35;;;;;;;18.17;14.07;;;19.30;99.90;;;19.58;88.01;101218.63;5055925;28;20206;-71
2021/07/14 06:29:04;;;;;;;15.20;11.93;;;19.30;99.90;;;19.59;87.90;101223.03;5056220;28;20548;-72
2021/07/14 06:31:33;;;;;;;18.17;13.55;;;19.40;99.90;;;19.56;88.21;101209.75;5055654;28;20041;-73
2021/07/14 06:34:03;;;;;;;16.80;13.27;;;19.40;99.90;;;19.66;87.94;101213.84;5055429;28;20041;-73
2021/07/14 06:36:33;;;;;;;15.55;12.35;;;19.40;99.90;;;19.71;87.86;101203.81;5055567;28;20385;-75
2021/07/14 06:39:02;;;;;;;17.30;13.20;;;19.50;99.90;;;19.48;88.37;101214.50;5055563;28;20067;-74
2021/07/14 06:41:31;;;;;;;24.80;14.77;;;19.30;99.90;;;19.51;88.30;101209.91;5054331;28;20048;-72
2021/07/14 06:44:01;;;;;;;19.83;14.50;;;19.30;99.90;;;19.56;88.42;101201.69;5055550;28;20041;-71
2021/07/14 06:46:31;;;;;;;16.98;13.70;;;19.40;99.90;;;19.55;88.14;101198.13;5055357;28;20072;-73
2021/07/14 06:49:00;;;;;;;15.77;11.80;;;19.40;99.90;;;19.41;87.83;101189.72;5055898;28;20052;-73
2021/07/14 06:51:31;;;;;;;17.45;12.00;;;19.30;99.90;;;19.50;87.79;101209.94;5055551;28;20132;-74
2021/07/14 06:53:59;;;;;;;13.80;12.23;;;19.30;99.90;;;19.60;87.36;101206.03;5055512;28;20079;-74
2021/07/14 06:56:28;;;;;;;15.93;12.35;;;19.40;99.90;;;19.62;87.23;101215.78;5053977;28;20053;-72
2021/07/14 06:58:56;;;;;;;16.13;12.15;;;19.40;99.90;;;19.68;87.00;101215.56;5055302;28;20049;-76
2021/07/14 07:01:25;;;;;;;18.85;12.85;;;19.50;99.90;;;19.69;86.68;101221.78;5054907;28;20410;-73
2021/07/14 07:03:54;;;;;;;15.85;12.63;;;19.50;99.90;;;19.74;86.62;101227.88;5055268;28;20049;-72
2021/07/14 07:06:24;;;;;;;17.17;13.10;;;19.50;99.90;;;19.67;86.80;101232.59;5070747;28;20045;-73
2021/07/14 07:08:54;;;;;;;18.25;13.27;;;19.50;99.90;;;19.69;86.73;101227.16;5055332;28;20060;-70
2021/07/14 07:11:23;;;;;;;17.80;13.60;;;19.50;99.90;;;19.71;86.57;101225.28;5055211;28;20045;-70
2021/07/14 07:13:51;;;;;;;15.40;12.73;;;19.50;99.90;;;19.76;86.23;101229.56;5055077;28;20044;-70
2021/07/14 07:16:20;;;;;;;21.58;13.43;;;19.50;99.90;;;19.73;86.00;101220.75;5054951;28;20048;-70
2021/07/14 07:18:48;;;;;;;19.40;13.60;;;19.50;99.90;;;19.51;87.24;101225.16;5054788;28;20076;-70
2021/07/14 07:21:17;;;;;;;18.70;13.07;;;19.30;99.90;;;19.61;86.72;101226.53;5054847;28;20123;-69
2021/07/14 07:23:46;;;;;;;21.00;14.27;;;19.40;99.90;;;19.57;87.21;101222.22;5054829;28;20053;-69
2021/07/14 07:26:16;;;;;;;20.85;14.20;;;19.40;99.90;;;19.01;87.25;101134.81;5054730;28;20508;-68
2021/07/14 07:29:03;;;;;;;16.92;13.60;;;19.30;99.90;;;19.61;86.67;101222.06;5055104;28;20084;-70
2021/07/14 07:31:33;;;;;;;;;;;19.40;99.90;;;19.59;86.74;101223.03;5055041;28;20048;-69
2021/07/14 07:34:01;;;;;;;24.27;12.98;;;19.40;99.90;;;19.68;86.06;101210.19;5054744;28;19921;-71
2021/07/14 07:36:29;;;;;;;18.20;14.10;;;19.50;99.90;;;19.69;85.92;101206.56;5054571;28;20049;-69
2021/07/14 07:38:58;;;;;;;23.40;13.70;;;19.50;99.90;;;19.77;85.81;101220.59;5054565;28;20131;-70
2021/07/14 07:41:28;;;;;;;19.95;12.57;;;19.60;99.90;;;19.82;85.25;101216.84;5054613;28;20107;-71
2021/07/14 07:43:57;;;;;;;16.05;13.05;;;19.60;99.90;;;19.81;84.91;101205.22;5054280;28;20052;-71
2021/07/14 07:46:25;;;;;;;16.15;12.77;;;19.60;99.90;;;19.79;84.83;101210.66;5054524;28;20498;-69
2021/07/14 07:48:54;;;;;;;21.58;12.18;;;19.60;99.90;;;19.54;85.16;101200.88;5054173;28;20068;-70
2021/07/14 07:51:22;;;;;;;18.25;13.13;;;19.50;99.90;;;19.66;85.66;101206.69;5070031;28;20122;-74
2021/07/14 07:53:53;;;;;;;20.33;13.45;;;19.50;99.90;;;19.68;85.57;101187.84;5054283;28;20053;-72
2021/07/14 07:56:22;;;;;;;22.52;14.13;;;19.50;99.90;;;19.52;86.60;101192.00;5054171;28;20071;-72
2021/07/14 07:58:55;;;;;;;27.27;13.73;;;19.40;99.90;;;19.55;86.27;101195.44;5054191;28;20079;-72
2021/07/14 08:01:23;;;;;;;22.15;14.07;;;19.40;99.90;;;19.55;86.66;101195.44;5053747;28;20179;-76
2021/07/14 08:03:52;;;;;;;16.20;13.18;;;19.40;99.90;;;19.68;86.10;101202.13;5054093;28;20044;-75
2021/07/14 08:06:20;;;;;;;23.75;14.60;;;19.50;99.90;;;19.76;85.86;101201.84;5054181;28;20045;-70
2021/07/14 08:08:48;;;;;;;25.52;13.75;;;19.50;99.90;;;19.83;85.79;101200.69;5053973;28;20060;-71
2021/07/14 08:11:17;;;;;;;20.30;14.13;;;19.60;99.90;;;19.77;85.76;101198.22;5052712;28;20052;-69
2021/07/14 08:13:46;;;;;;;22.77;13.57;;;19.60;99.90;;;19.69;85.98;101198.50;5054088;28;20334;-68
2021/07/14 08:16:16;;;;;;;18.35;13.93;;;19.60;99.90;;;19.46;87.22;101198.47;5069217;28;20049;-66
2021/07/14 08:18:45;;;;;;;19.00;13.82;;;19.30;99.90;;;19.42;87.06;101190.56;5053701;28;20131;-65
2021/07/14 08:21:13;;;;;;;24.00;17.67;;;19.40;99.90;;;19.54;86.91;101206.22;5053765;28;20079;-66
2021/07/14 08:23:41;;;;;;;19.48;13.75;;;19.30;99.90;;;19.58;87.00;101213.25;5053497;28;20048;-66
2021/07/14 08:26:12;;;;;;;18.77;14.02;;;19.40;99.90;;;19.69;86.90;101211.03;5053212;28;20394;-66
2021/07/14 08:28:40;;;;;;;20.63;13.45;;;19.40;99.90;;;19.48;86.32;101164.41;5053806;28;20053;-67
2021/07/14 08:31:09;;;;;;;18.70;13.68;;;19.50;99.90;;;19.66;86.80;101213.84;5053596;28;20098;-67
2021/07/14 08:33:39;;;;;;;18.05;13.13;;;19.50;99.90;;;19.69;87.02;101216.41;5053577;28;20044;-67
2021/07/14 08:36:07;;;;;;;16.58;12.10;;;19.50;99.90;;;19.67;87.00;101215.59;5053824;28;20048;-66
2021/07/14 08:38:36;;;;;;;18.60;12.65;;;19.50;99.90;;;19.63;87.23;101216.63;5053509;28;20043;-67
2021/07/14 08:41:07;;;;;;;18.45;12.57;;;19.50;99.90;;;19.75;86.97;101217.06;5053506;28;20052;-67
2021/07/14 08:43:38;;;;;;;17.08;11.30;;;19.60;99.90;;;19.69;87.18;101224.47;5053101;28;20076;-67
2021/07/14 08:46:06;;;;;;;14.05;11.05;;;19.50;99.90;;;19.66;86.88;101217.44;5053495;28;20067;-69
2021/07/14 08:48:35;;;;;;;14.07;10.55;;;19.60;99.90;;;19.76;86.94;101216.13;5053338;28;20037;-69
2021/07/14 08:51:05;;;;;;;14.50;10.48;;;19.60;99.90;;;19.82;86.88;101216.84;5053422;28;20580;-69
2021/07/14 08:53:34;;;;;;;15.50;10.90;;;19.70;99.90;;;19.77;86.68;101208.97;5068869;28;20443;-66
2021/07/14 08:56:04;;;;;;;14.40;10.65;;;19.60;99.90;;;19.90;86.37;101221.00;5053037;28;20049;-65
2021/07/14 08:58:32;;;;;;;15.45;11.50;;;19.70;99.90;;;19.65;86.57;101218.34;5052044;28;20056;-68
2021/07/14 09:01:02;;;;;;;15.50;11.55;;;19.60;99.90;;;19.57;87.44;101200.75;5052793;28;20102;-68
2021/07/14 09:03:32;;;;;;;15.30;11.07;;;19.50;99.90;;;19.66;87.32;101214.75;5053382;28;20040;-68
2021/07/14 09:06:01;;;;;;;14.98;10.70;;;19.50;99.90;;;19.49;87.87;101217.13;5051994;28;20076;-68
2021/07/14 09:08:30;;;;;;;15.27;9.95;;;19.40;99.90;;;19.57;87.72;101222.22;5053069;28;20122;-68
2021/07/14 09:10:59;;;;;;;12.07;10.30;;;19.40;99.90;;;19.59;87.63;101214.97;5051895;28;20561;-67
2021/07/14 09:13:35;;;;;;;12.95;9.98;;;19.50;99.90;;;19.57;87.52;101211.47;5053041;28;20090;-67
2021/07/14 09:16:05;;;;;;;11.07;9.18;;;19.40;99.90;;;19.70;87.13;101218.19;5053068;28;20045;-68
2021/07/14 09:18:34;;;;;;;135.60;81.60;;;19.50;99.90;;;19.72;86.83;101202.91;5051868;28;20056;-70
2021/07/14 09:21:18;;;;;;;17.38;10.82;;;19.60;99.90;;;19.58;87.39;101213.25;5053195;28;20055;-67
2021/07/14 09:23:48;;;;;;;15.85;10.40;;;19.50;99.90;;;19.67;87.45;101219.16;5051902;28;20041;-67
2021/07/14 09:26:16;;;;;;;13.90;10.10;;;19.50;99.90;;;19.62;87.29;101188.94;5068285;28;20055;-65
2021/07/14 09:28:45;;;;;;;11.25;9.50;;;19.60;99.90;;;19.86;87.35;101219.34;5052730;28;20130;-66
2021/07/14 09:31:15;;;;;;;16.10;11.48;;;19.70;99.90;;;19.76;87.35;101215.28;5051741;28;20557;-65
2021/07/14 09:33:45;;;;;;;16.17;11.55;;;19.60;99.90;;;19.64;87.07;101186.19;5053032;28;20483;-67
2021/07/14 09:36:14;;;;;;;15.00;10.95;;;19.70;99.90;;;19.63;87.17;101208.56;5051548;28;20045;-68
2021/07/14 09:38:42;;;;;;;14.55;10.60;;;19.50;99.90;;;19.48;88.76;101222.56;5052737;28;20081;-73
2021/07/14 09:41:15;;;;;;;14.23;11.02;;;19.30;99.90;;;19.65;88.33;101221.03;5068232;28;20118;-69
2021/07/14 09:43:46;;;;;;;17.33;12.13;;;19.40;99.90;;;19.75;87.96;101216.19;5052929;28;20068;-69
2021/07/14 09:46:17;;;;;;;13.80;11.25;;;19.50;99.90;;;19.84;87.50;101218.53;5052848;28;20059;-69
2021/07/14 09:48:48;;;;;;;16.02;11.63;;;19.60;99.90;;;19.74;86.90;101214.47;5052791;28;20128;-69
2021/07/14 09:51:19;;;;;;;17.00;12.15;;;19.60;99.90;;;19.76;87.02;101223.34;5052565;28;20095;-69
2021/07/14 09:53:49;;;;;;;15.77;10.48;;;19.60;99.90;;;19.55;87.25;101218.75;5052770;28;20045;-70
2021/07/14 09:56:21;;;;;;;;;;;19.50;99.90;;;19.84;86.94;101223.03;5069815;28;20510;-71
2021/07/14 09:59:03;;;;;;;17.45;12.10;;;19.60;99.90;;;19.83;86.71;101223.97;5056475;28;19920;-70
2021/07/14 10:01:36;;;;;;;16.88;12.85;;;19.60;99.90;;;19.79;86.54;101220.53;5056280;28;20556;-69
2021/07/14 10:04:06;;;;;;;16.45;11.88;;;19.60;99.90;;;19.68;86.26;101226.28;5055290;28;20405;-70
2021/07/14 10:07:15;;;;;;;16.83;12.82;;;19.60;99.90;;;19.86;86.33;101227.41;5056562;28;20049;-71
2021/07/14 10:09:45;;;;;;;18.08;14.15;;;19.60;99.90;;;19.76;86.14;101234.06;5056161;28;20483;-71
2021/07/14 10:12:30;;;;;;;19.23;13.13;;;19.60;99.90;;;19.87;86.33;101222.91;5056077;28;20553;-73
2021/07/14 10:15:19;;;;;;;17.00;13.57;;;19.70;99.90;;;19.85;85.67;101193.44;5056112;28;20538;-67
2021/07/14 10:17:50;;;;;;;19.98;14.40;;;19.70;99.90;;;19.85;85.91;101212.25;5055865;28;20048;-70
2021/07/14 10:20:30;;;;;;;17.08;13.48;;;19.70;99.90;;;19.97;85.80;101211.78;5071603;28;20107;-70
2021/07/14 10:23:04;;;;;;;17.42;12.77;;;19.80;99.90;;;19.86;85.97;101213.13;5055879;28;20482;-68